sensor_id;sensor_type;location;lat;lon;timestamp;temperature;humidity
21734;DHT22;11029;47.820;10.534;2023-01-08T00:01:11;-0.60;75.90
21734;DHT22;11029;47.820;10.534;2023-01-08T00:03:38;-0.70;76.10
21734;DHT22;11029;47.820;10.534;2023-01-08T00:06:09;-0.80;76.80
21734;DHT22;11029;47.820;10.534;2023-01-08T00:08:36;-0.80;77.60
21734;DHT22;11029;47.820;10.534;2023-01-08T00:11:03;-0.80;77.30
21734;DHT22;11029;47.820;10.534;2023-01-08T00:13:29;-0.70;77.30
21734;DHT22;11029;47.820;10.534;2023-01-08T00:15:56;-0.70;76.70
21734;DHT22;11029;47.820;10.534;2023-01-08T00:18:23;-0.70;76.70
21734;DHT22;11029;47.820;10.534;2023-01-08T00:20:52;-0.70;75.70
21734;DHT22;11029;47.820;10.534;2023-01-08T00:23:19;-0.80;76.40
21734;DHT22;11029;47.820;10.534;2023-01-08T00:25:46;-0.80;77.10
21734;DHT22;11029;47.820;10.534;2023-01-08T00:28:13;-0.90;76.50
21734;DHT22;11029;47.820;10.534;2023-01-08T00:30:42;-0.90;77.30
21734;DHT22;11029;47.820;10.534;2023-01-08T00:33:09;-0.90;77.60
21734;DHT22;11029;47.820;10.534;2023-01-08T00:35:37;-0.90;76.60
21734;DHT22;11029;47.820;10.534;2023-01-08T00:38:04;-1.00;76.40
21734;DHT22;11029;47.820;10.534;2023-01-08T00:40:35;-1.00;76.80
21734;DHT22;11029;47.820;10.534;2023-01-08T00:43:02;-1.00;76.20
21734;DHT22;11029;47.820;10.534;2023-01-08T00:45:29;-1.00;76.30
21734;DHT22;11029;47.820;10.534;2023-01-08T00:47:56;-1.00;76.00
21734;DHT22;11029;47.820;10.534;2023-01-08T00:50:23;-1.00;76.00
21734;DHT22;11029;47.820;10.534;2023-01-08T00:52:50;-0.90;75.80
21734;DHT22;11029;47.820;10.534;2023-01-08T00:55:17;-0.90;75.30
21734;DHT22;11029;47.820;10.534;2023-01-08T00:57:44;-0.90;75.20
21734;DHT22;11029;47.820;10.534;2023-01-08T01:00:13;-0.90;75.60
21734;DHT22;11029;47.820;10.534;2023-01-08T01:02:40;-1.00;76.00
21734;DHT22;11029;47.820;10.534;2023-01-08T01:05:07;-1.00;76.40
21734;DHT22;11029;47.820;10.534;2023-01-08T01:07:35;-1.00;76.60
21734;DHT22;11029;47.820;10.534;2023-01-08T01:10:02;-0.90;75.90
21734;DHT22;11029;47.820;10.534;2023-01-08T01:12:29;-1.00;76.00
21734;DHT22;11029;47.820;10.534;2023-01-08T01:14:56;-1.00;76.40
21734;DHT22;11029;47.820;10.534;2023-01-08T01:17:23;-1.00;75.80
21734;DHT22;11029;47.820;10.534;2023-01-08T01:19:49;-1.10;76.10
21734;DHT22;11029;47.820;10.534;2023-01-08T01:22:16;-1.20;76.70
21734;DHT22;11029;47.820;10.534;2023-01-08T01:24:43;-1.10;76.50
21734;DHT22;11029;47.820;10.534;2023-01-08T01:27:10;-1.10;76.00
21734;DHT22;11029;47.820;10.534;2023-01-08T01:29:36;-1.20;76.10
21734;DHT22;11029;47.820;10.534;2023-01-08T01:32:03;-1.20;75.80
21734;DHT22;11029;47.820;10.534;2023-01-08T01:34:31;-1.20;75.90
21734;DHT22;11029;47.820;10.534;2023-01-08T01:36:58;-1.20;75.50
21734;DHT22;11029;47.820;10.534;2023-01-08T01:39:25;-1.20;75.40
21734;DHT22;11029;47.820;10.534;2023-01-08T01:41:52;-1.10;75.70
21734;DHT22;11029;47.820;10.534;2023-01-08T01:47:27;-1.20;75.40
21734;DHT22;11029;47.820;10.534;2023-01-08T01:50:07;-1.20;75.00
21734;DHT22;11029;47.820;10.534;2023-01-08T01:52:39;-1.40;76.00
21734;DHT22;11029;47.820;10.534;2023-01-08T01:55:09;-1.40;76.10
21734;DHT22;11029;47.820;10.534;2023-01-08T01:57:37;-1.40;76.40
21734;DHT22;11029;47.820;10.534;2023-01-08T02:00:07;-1.70;76.40
21734;DHT22;11029;47.820;10.534;2023-01-08T02:02:40;-1.80;77.80
21734;DHT22;11029;47.820;10.534;2023-01-08T02:05:07;-1.80;78.40
21734;DHT22;11029;47.820;10.534;2023-01-08T02:07:39;-1.70;78.10
21734;DHT22;11029;47.820;10.534;2023-01-08T02:10:16;-1.60;77.80
21734;DHT22;11029;47.820;10.534;2023-01-08T02:13:00;-1.60;77.50
21734;DHT22;11029;47.820;10.534;2023-01-08T02:18:20;-1.50;76.50
21734;DHT22;11029;47.820;10.534;2023-01-08T02:21:04;-1.50;77.30
21734;DHT22;11029;47.820;10.534;2023-01-08T02:23:40;-1.50;77.00
21734;DHT22;11029;47.820;10.534;2023-01-08T02:26:26;-1.40;77.00
21734;DHT22;11029;47.820;10.534;2023-01-08T02:29:00;-1.40;76.20
21734;DHT22;11029;47.820;10.534;2023-01-08T02:31:30;-1.50;76.70
21734;DHT22;11029;47.820;10.534;2023-01-08T02:33:57;-1.50;77.10
21734;DHT22;11029;47.820;10.534;2023-01-08T02:39:11;-1.50;76.10
21734;DHT22;11029;47.820;10.534;2023-01-08T02:44:25;-1.70;77.10
21734;DHT22;11029;47.820;10.534;2023-01-08T02:46:55;-1.70;77.50
21734;DHT22;11029;47.820;10.534;2023-01-08T02:49:27;-1.60;77.60
21734;DHT22;11029;47.820;10.534;2023-01-08T02:51:55;-1.60;77.40
21734;DHT22;11029;47.820;10.534;2023-01-08T02:54:26;-1.40;77.50
21734;DHT22;11029;47.820;10.534;2023-01-08T02:57:04;-1.40;76.70
21734;DHT22;11029;47.820;10.534;2023-01-08T02:59:33;-1.30;76.60
21734;DHT22;11029;47.820;10.534;2023-01-08T03:02:01;-1.30;76.10
21734;DHT22;11029;47.820;10.534;2023-01-08T03:04:33;-1.40;75.90
21734;DHT22;11029;47.820;10.534;2023-01-08T03:07:02;-1.40;75.90
21734;DHT22;11029;47.820;10.534;2023-01-08T03:09:29;-1.40;75.70
21734;DHT22;11029;47.820;10.534;2023-01-08T03:12:01;-1.40;76.10
21734;DHT22;11029;47.820;10.534;2023-01-08T03:14:40;-1.40;75.40
21734;DHT22;11029;47.820;10.534;2023-01-08T03:17:20;-1.40;75.80
21734;DHT22;11029;47.820;10.534;2023-01-08T03:19:51;-1.30;75.60
21734;DHT22;11029;47.820;10.534;2023-01-08T03:22:19;-1.30;75.50
21734;DHT22;11029;47.820;10.534;2023-01-08T03:24:50;-1.30;75.50
21734;DHT22;11029;47.820;10.534;2023-01-08T03:27:21;-1.30;76.20
21734;DHT22;11029;47.820;10.534;2023-01-08T03:29:50;-1.30;76.40
21734;DHT22;11029;47.820;10.534;2023-01-08T03:32:19;-1.40;75.10
21734;DHT22;11029;47.820;10.534;2023-01-08T03:34:48;-1.40;75.10
21734;DHT22;11029;47.820;10.534;2023-01-08T03:37:20;-1.50;75.80
21734;DHT22;11029;47.820;10.534;2023-01-08T03:40:25;-1.50;75.90
21734;DHT22;11029;47.820;10.534;2023-01-08T03:42:55;-1.50;76.00
21734;DHT22;11029;47.820;10.534;2023-01-08T03:45:24;-1.40;76.70
21734;DHT22;11029;47.820;10.534;2023-01-08T03:47:53;-1.30;77.00
21734;DHT22;11029;47.820;10.534;2023-01-08T03:50:22;-1.30;76.20
21734;DHT22;11029;47.820;10.534;2023-01-08T03:52:51;-1.40;75.60
21734;DHT22;11029;47.820;10.534;2023-01-08T03:55:18;-1.40;77.00
21734;DHT22;11029;47.820;10.534;2023-01-08T03:57:45;-1.40;76.10
21734;DHT22;11029;47.820;10.534;2023-01-08T04:00:12;-1.60;77.20
21734;DHT22;11029;47.820;10.534;2023-01-08T04:02:39;-1.50;77.80
21734;DHT22;11029;47.820;10.534;2023-01-08T04:05:08;-1.50;77.50
21734;DHT22;11029;47.820;10.534;2023-01-08T04:07:35;-1.60;77.20
21734;DHT22;11029;47.820;10.534;2023-01-08T04:10:02;-1.60;78.20
21734;DHT22;11029;47.820;10.534;2023-01-08T04:12:29;-1.60;78.80
21734;DHT22;11029;47.820;10.534;2023-01-08T04:14:55;-1.60;78.00
21734;DHT22;11029;47.820;10.534;2023-01-08T04:17:22;-1.60;77.60
21734;DHT22;11029;47.820;10.534;2023-01-08T04:19:49;-1.50;77.40
21734;DHT22;11029;47.820;10.534;2023-01-08T04:22:15;-1.40;77.50
21734;DHT22;11029;47.820;10.534;2023-01-08T04:24:42;-1.50;77.40
21734;DHT22;11029;47.820;10.534;2023-01-08T04:27:09;-1.40;78.20
21734;DHT22;11029;47.820;10.534;2023-01-08T04:29:35;-1.30;78.20
21734;DHT22;11029;47.820;10.534;2023-01-08T04:32:02;-1.30;77.40
21734;DHT22;11029;47.820;10.534;2023-01-08T04:34:29;-1.30;77.20
21734;DHT22;11029;47.820;10.534;2023-01-08T04:36:55;-1.40;77.50
21734;DHT22;11029;47.820;10.534;2023-01-08T04:39:22;-1.40;77.50
21734;DHT22;11029;47.820;10.534;2023-01-08T04:41:49;-1.30;77.80
21734;DHT22;11029;47.820;10.534;2023-01-08T04:44:15;-1.40;77.70
21734;DHT22;11029;47.820;10.534;2023-01-08T04:46:42;-1.30;77.60
21734;DHT22;11029;47.820;10.534;2023-01-08T04:49:12;-1.30;76.60
21734;DHT22;11029;47.820;10.534;2023-01-08T04:51:39;-1.40;76.80
21734;DHT22;11029;47.820;10.534;2023-01-08T04:54:06;-1.40;76.20
21734;DHT22;11029;47.820;10.534;2023-01-08T04:56:33;-1.40;75.90
21734;DHT22;11029;47.820;10.534;2023-01-08T04:58:59;-1.60;76.30
21734;DHT22;11029;47.820;10.534;2023-01-08T05:01:27;-1.60;76.90
21734;DHT22;11029;47.820;10.534;2023-01-08T05:03:58;-1.60;76.40
21734;DHT22;11029;47.820;10.534;2023-01-08T05:06:27;-1.60;77.20
21734;DHT22;11029;47.820;10.534;2023-01-08T05:08:54;-1.60;77.20
21734;DHT22;11029;47.820;10.534;2023-01-08T05:11:22;-1.50;77.40
21734;DHT22;11029;47.820;10.534;2023-01-08T05:13:50;-1.50;77.50
21734;DHT22;11029;47.820;10.534;2023-01-08T05:16:16;-1.50;77.50
21734;DHT22;11029;47.820;10.534;2023-01-08T05:18:44;-1.50;77.70
21734;DHT22;11029;47.820;10.534;2023-01-08T05:21:11;-1.50;77.50
21734;DHT22;11029;47.820;10.534;2023-01-08T05:23:38;-1.40;76.80
21734;DHT22;11029;47.820;10.534;2023-01-08T05:26:05;-1.40;77.00
21734;DHT22;11029;47.820;10.534;2023-01-08T05:28:33;-1.40;76.50
21734;DHT22;11029;47.820;10.534;2023-01-08T05:30:59;-1.40;76.70
21734;DHT22;11029;47.820;10.534;2023-01-08T05:33:26;-1.50;77.40
21734;DHT22;11029;47.820;10.534;2023-01-08T05:35:53;-1.40;76.90
21734;DHT22;11029;47.820;10.534;2023-01-08T05:38:20;-1.50;77.90
21734;DHT22;11029;47.820;10.534;2023-01-08T05:40:47;-1.50;78.50
21734;DHT22;11029;47.820;10.534;2023-01-08T05:43:13;-1.40;76.90
21734;DHT22;11029;47.820;10.534;2023-01-08T05:45:40;-1.50;77.00
21734;DHT22;11029;47.820;10.534;2023-01-08T05:48:07;-1.50;77.70
21734;DHT22;11029;47.820;10.534;2023-01-08T05:50:34;-1.40;77.80
21734;DHT22;11029;47.820;10.534;2023-01-08T05:53:04;-1.30;77.70
21734;DHT22;11029;47.820;10.534;2023-01-08T05:55:31;-1.20;78.30
21734;DHT22;11029;47.820;10.534;2023-01-08T05:58:04;-1.20;78.70
21734;DHT22;11029;47.820;10.534;2023-01-08T06:00:31;-1.10;78.30
21734;DHT22;11029;47.820;10.534;2023-01-08T06:02:58;-1.10;78.10
21734;DHT22;11029;47.820;10.534;2023-01-08T06:05:25;-1.00;78.20
21734;DHT22;11029;47.820;10.534;2023-01-08T06:07:52;-1.00;78.40
21734;DHT22;11029;47.820;10.534;2023-01-08T06:10:18;-1.10;78.00
21734;DHT22;11029;47.820;10.534;2023-01-08T06:12:45;-1.10;78.70
21734;DHT22;11029;47.820;10.534;2023-01-08T06:15:12;-1.20;79.60
21734;DHT22;11029;47.820;10.534;2023-01-08T06:17:39;-1.20;79.90
21734;DHT22;11029;47.820;10.534;2023-01-08T06:20:06;-1.00;80.00
21734;DHT22;11029;47.820;10.534;2023-01-08T06:22:33;-0.90;79.60
21734;DHT22;11029;47.820;10.534;2023-01-08T06:25:00;-0.90;79.60
21734;DHT22;11029;47.820;10.534;2023-01-08T06:27:27;-0.80;79.40
21734;DHT22;11029;47.820;10.534;2023-01-08T06:29:53;-0.80;79.20
21734;DHT22;11029;47.820;10.534;2023-01-08T06:32:20;-0.80;78.80
21734;DHT22;11029;47.820;10.534;2023-01-08T06:34:47;-0.80;79.20
21734;DHT22;11029;47.820;10.534;2023-01-08T06:37:14;-0.70;79.10
21734;DHT22;11029;47.820;10.534;2023-01-08T06:39:40;-0.70;79.00
21734;DHT22;11029;47.820;10.534;2023-01-08T06:42:07;-0.60;78.80
21734;DHT22;11029;47.820;10.534;2023-01-08T06:44:34;-0.60;78.70
21734;DHT22;11029;47.820;10.534;2023-01-08T06:47:00;-0.50;78.80
21734;DHT22;11029;47.820;10.534;2023-01-08T06:49:27;-0.50;78.60
21734;DHT22;11029;47.820;10.534;2023-01-08T06:51:54;-0.50;78.40
21734;DHT22;11029;47.820;10.534;2023-01-08T06:54:20;-0.50;78.50
21734;DHT22;11029;47.820;10.534;2023-01-08T06:56:48;-0.40;78.30
21734;DHT22;11029;47.820;10.534;2023-01-08T06:59:20;-0.40;78.00
21734;DHT22;11029;47.820;10.534;2023-01-08T07:01:46;-0.50;78.40
21734;DHT22;11029;47.820;10.534;2023-01-08T07:04:13;-0.50;78.50
21734;DHT22;11029;47.820;10.534;2023-01-08T07:06:40;-0.40;78.30
21734;DHT22;11029;47.820;10.534;2023-01-08T07:09:13;-0.40;78.40
21734;DHT22;11029;47.820;10.534;2023-01-08T07:11:40;-0.40;78.00
21734;DHT22;11029;47.820;10.534;2023-01-08T07:14:07;-0.40;78.80
21734;DHT22;11029;47.820;10.534;2023-01-08T07:16:34;-0.30;78.90
21734;DHT22;11029;47.820;10.534;2023-01-08T07:19:01;-0.30;78.50
21734;DHT22;11029;47.820;10.534;2023-01-08T07:21:28;-0.30;78.80
21734;DHT22;11029;47.820;10.534;2023-01-08T07:23:56;-0.30;78.90
21734;DHT22;11029;47.820;10.534;2023-01-08T07:26:24;-0.20;78.70
21734;DHT22;11029;47.820;10.534;2023-01-08T07:28:51;-0.10;78.40
21734;DHT22;11029;47.820;10.534;2023-01-08T07:31:18;-0.10;78.20
21734;DHT22;11029;47.820;10.534;2023-01-08T07:33:45;-0.10;78.30
21734;DHT22;11029;47.820;10.534;2023-01-08T07:36:11;-0.10;77.90
21734;DHT22;11029;47.820;10.534;2023-01-08T07:38:38;-0.10;78.40
21734;DHT22;11029;47.820;10.534;2023-01-08T07:41:04;-0.10;78.10
21734;DHT22;11029;47.820;10.534;2023-01-08T07:43:31;0.00;77.80
21734;DHT22;11029;47.820;10.534;2023-01-08T07:46:01;0.00;78.00
21734;DHT22;11029;47.820;10.534;2023-01-08T07:48:29;0.00;78.30
21734;DHT22;11029;47.820;10.534;2023-01-08T07:51:03;0.00;77.80
21734;DHT22;11029;47.820;10.534;2023-01-08T07:53:30;0.10;77.70
21734;DHT22;11029;47.820;10.534;2023-01-08T07:56:01;0.10;77.70
21734;DHT22;11029;47.820;10.534;2023-01-08T07:58:28;0.20;77.60
21734;DHT22;11029;47.820;10.534;2023-01-08T08:00:55;0.20;77.60
21734;DHT22;11029;47.820;10.534;2023-01-08T08:03:24;0.20;77.30
21734;DHT22;11029;47.820;10.534;2023-01-08T08:05:52;0.20;77.50
21734;DHT22;11029;47.820;10.534;2023-01-08T08:08:19;0.30;77.20
21734;DHT22;11029;47.820;10.534;2023-01-08T08:10:46;0.30;77.20
21734;DHT22;11029;47.820;10.534;2023-01-08T08:13:13;0.40;77.40
21734;DHT22;11029;47.820;10.534;2023-01-08T08:15:40;0.40;77.60
21734;DHT22;11029;47.820;10.534;2023-01-08T08:18:07;0.30;76.40
21734;DHT22;11029;47.820;10.534;2023-01-08T08:20:34;0.30;76.90
21734;DHT22;11029;47.820;10.534;2023-01-08T08:23:12;0.30;77.00
21734;DHT22;11029;47.820;10.534;2023-01-08T08:25:40;0.20;76.90
21734;DHT22;11029;47.820;10.534;2023-01-08T08:28:09;0.30;76.90
21734;DHT22;11029;47.820;10.534;2023-01-08T08:30:36;0.40;77.20
21734;DHT22;11029;47.820;10.534;2023-01-08T08:33:05;0.60;77.20
21734;DHT22;11029;47.820;10.534;2023-01-08T08:35:33;0.70;76.90
21734;DHT22;11029;47.820;10.534;2023-01-08T08:38:00;0.90;76.70
21734;DHT22;11029;47.820;10.534;2023-01-08T08:40:27;1.00;76.20
21734;DHT22;11029;47.820;10.534;2023-01-08T08:42:58;1.10;76.30
21734;DHT22;11029;47.820;10.534;2023-01-08T08:45:25;1.10;75.90
21734;DHT22;11029;47.820;10.534;2023-01-08T08:47:53;1.30;75.60
21734;DHT22;11029;47.820;10.534;2023-01-08T08:50:20;1.40;75.50
21734;DHT22;11029;47.820;10.534;2023-01-08T08:52:47;1.40;75.00
21734;DHT22;11029;47.820;10.534;2023-01-08T08:55:14;1.40;75.40
21734;DHT22;11029;47.820;10.534;2023-01-08T08:57:44;1.50;75.50
21734;DHT22;11029;47.820;10.534;2023-01-08T09:00:12;1.50;75.60
21734;DHT22;11029;47.820;10.534;2023-01-08T09:02:39;1.60;75.40
21734;DHT22;11029;47.820;10.534;2023-01-08T09:05:06;1.60;75.70
21734;DHT22;11029;47.820;10.534;2023-01-08T09:07:33;1.70;75.50
21734;DHT22;11029;47.820;10.534;2023-01-08T09:10:00;1.80;76.10
21734;DHT22;11029;47.820;10.534;2023-01-08T09:12:27;1.90;75.70
21734;DHT22;11029;47.820;10.534;2023-01-08T09:14:53;2.00;75.30
21734;DHT22;11029;47.820;10.534;2023-01-08T09:17:22;2.10;75.30
21734;DHT22;11029;47.820;10.534;2023-01-08T09:19:50;2.20;75.50
21734;DHT22;11029;47.820;10.534;2023-01-08T09:22:17;2.30;75.20
21734;DHT22;11029;47.820;10.534;2023-01-08T09:24:44;2.40;74.50
21734;DHT22;11029;47.820;10.534;2023-01-08T09:27:11;2.50;74.80
21734;DHT22;11029;47.820;10.534;2023-01-08T09:29:38;2.50;74.90
21734;DHT22;11029;47.820;10.534;2023-01-08T09:32:05;2.60;75.10
21734;DHT22;11029;47.820;10.534;2023-01-08T09:34:33;2.90;75.00
21734;DHT22;11029;47.820;10.534;2023-01-08T09:37:02;3.00;73.90
21734;DHT22;11029;47.820;10.534;2023-01-08T09:39:28;3.20;73.60
21734;DHT22;11029;47.820;10.534;2023-01-08T09:41:56;3.20;73.40
21734;DHT22;11029;47.820;10.534;2023-01-08T09:44:27;3.30;73.40
21734;DHT22;11029;47.820;10.534;2023-01-08T09:46:55;3.40;73.70
21734;DHT22;11029;47.820;10.534;2023-01-08T09:49:35;3.50;73.70
21734;DHT22;11029;47.820;10.534;2023-01-08T09:52:05;3.50;73.80
21734;DHT22;11029;47.820;10.534;2023-01-08T09:54:31;3.50;73.20
21734;DHT22;11029;47.820;10.534;2023-01-08T09:56:58;3.60;73.10
21734;DHT22;11029;47.820;10.534;2023-01-08T09:59:26;3.50;72.70
21734;DHT22;11029;47.820;10.534;2023-01-08T10:01:53;3.40;72.90
21734;DHT22;11029;47.820;10.534;2023-01-08T10:04:25;3.40;72.60
21734;DHT22;11029;47.820;10.534;2023-01-08T10:06:59;3.30;73.00
21734;DHT22;11029;47.820;10.534;2023-01-08T10:09:28;3.30;73.50
21734;DHT22;11029;47.820;10.534;2023-01-08T10:11:59;3.20;74.10
21734;DHT22;11029;47.820;10.534;2023-01-08T10:14:32;3.30;74.30
21734;DHT22;11029;47.820;10.534;2023-01-08T10:17:03;3.30;75.00
21734;DHT22;11029;47.820;10.534;2023-01-08T10:19:37;3.20;75.60
21734;DHT22;11029;47.820;10.534;2023-01-08T10:22:11;3.30;75.70
21734;DHT22;11029;47.820;10.534;2023-01-08T10:24:40;3.40;75.80
21734;DHT22;11029;47.820;10.534;2023-01-08T10:27:13;3.60;75.70
21734;DHT22;11029;47.820;10.534;2023-01-08T10:29:40;3.60;75.70
21734;DHT22;11029;47.820;10.534;2023-01-08T10:32:14;3.70;75.40
21734;DHT22;11029;47.820;10.534;2023-01-08T10:34:46;3.80;75.50
21734;DHT22;11029;47.820;10.534;2023-01-08T10:40:40;4.10;75.80
21734;DHT22;11029;47.820;10.534;2023-01-08T10:43:14;4.20;75.70
21734;DHT22;11029;47.820;10.534;2023-01-08T10:45:52;4.30;75.80
21734;DHT22;11029;47.820;10.534;2023-01-08T10:48:20;4.40;75.70
21734;DHT22;11029;47.820;10.534;2023-01-08T10:50:47;4.40;75.30
21734;DHT22;11029;47.820;10.534;2023-01-08T10:53:24;4.50;75.20
21734;DHT22;11029;47.820;10.534;2023-01-08T10:56:01;4.70;75.20
21734;DHT22;11029;47.820;10.534;2023-01-08T10:58:29;4.80;74.70
21734;DHT22;11029;47.820;10.534;2023-01-08T11:01:08;5.00;74.20
21734;DHT22;11029;47.820;10.534;2023-01-08T11:03:36;5.20;73.70
21734;DHT22;11029;47.820;10.534;2023-01-08T11:06:17;5.30;73.20
21734;DHT22;11029;47.820;10.534;2023-01-08T11:08:52;5.50;73.20
21734;DHT22;11029;47.820;10.534;2023-01-08T11:11:19;5.60;73.10
21734;DHT22;11029;47.820;10.534;2023-01-08T11:14:00;5.70;72.80
21734;DHT22;11029;47.820;10.534;2023-01-08T11:16:33;5.70;73.00
21734;DHT22;11029;47.820;10.534;2023-01-08T11:19:00;5.70;73.10
21734;DHT22;11029;47.820;10.534;2023-01-08T11:21:31;5.80;73.40
21734;DHT22;11029;47.820;10.534;2023-01-08T11:24:18;5.90;73.20
21734;DHT22;11029;47.820;10.534;2023-01-08T11:26:49;5.80;73.20
21734;DHT22;11029;47.820;10.534;2023-01-08T11:29:33;5.80;73.20
21734;DHT22;11029;47.820;10.534;2023-01-08T11:35:20;5.80;73.20
21734;DHT22;11029;47.820;10.534;2023-01-08T11:37:51;5.80;72.70
21734;DHT22;11029;47.820;10.534;2023-01-08T11:40:36;5.80;71.90
21734;DHT22;11029;47.820;10.534;2023-01-08T11:54:23;5.90;73.70
21734;DHT22;11029;47.820;10.534;2023-01-08T11:57:09;5.80;74.10
21734;DHT22;11029;47.820;10.534;2023-01-08T11:59:57;5.80;74.30
21734;DHT22;11029;47.820;10.534;2023-01-08T12:02:53;5.80;74.20
21734;DHT22;11029;47.820;10.534;2023-01-08T12:05:28;5.80;74.30
21734;DHT22;11029;47.820;10.534;2023-01-08T12:10:42;5.80;73.80
21734;DHT22;11029;47.820;10.534;2023-01-08T12:22:08;5.80;73.70
21734;DHT22;11029;47.820;10.534;2023-01-08T12:24:58;5.80;73.90
21734;DHT22;11029;47.820;10.534;2023-01-08T12:28:01;5.80;74.00
21734;DHT22;11029;47.820;10.534;2023-01-08T12:30:51;5.80;74.10
21734;DHT22;11029;47.820;10.534;2023-01-08T12:36:02;5.90;74.20
21734;DHT22;11029;47.820;10.534;2023-01-08T12:38:31;5.90;74.50
21734;DHT22;11029;47.820;10.534;2023-01-08T12:41:05;5.80;74.60
21734;DHT22;11029;47.820;10.534;2023-01-08T12:46:11;5.80;74.80
21734;DHT22;11029;47.820;10.534;2023-01-08T12:48:41;5.90;75.00
21734;DHT22;11029;47.820;10.534;2023-01-08T12:51:14;5.80;75.10
21734;DHT22;11029;47.820;10.534;2023-01-08T12:59:50;5.80;76.00
21734;DHT22;11029;47.820;10.534;2023-01-08T13:02:48;5.80;76.20
21734;DHT22;11029;47.820;10.534;2023-01-08T13:07:50;5.70;76.50
21734;DHT22;11029;47.820;10.534;2023-01-08T13:10:37;5.80;76.20
21734;DHT22;11029;47.820;10.534;2023-01-08T13:13:06;5.80;76.10
21734;DHT22;11029;47.820;10.534;2023-01-08T13:15:34;5.80;76.00
21734;DHT22;11029;47.820;10.534;2023-01-08T13:18:16;5.90;75.60
21734;DHT22;11029;47.820;10.534;2023-01-08T13:20:54;6.00;75.40
21734;DHT22;11029;47.820;10.534;2023-01-08T13:23:28;6.00;75.00
21734;DHT22;11029;47.820;10.534;2023-01-08T13:25:57;6.10;74.80
21734;DHT22;11029;47.820;10.534;2023-01-08T13:30:50;6.30;74.50
21734;DHT22;11029;47.820;10.534;2023-01-08T13:33:36;6.40;74.10
21734;DHT22;11029;47.820;10.534;2023-01-08T13:36:15;6.40;73.50
21734;DHT22;11029;47.820;10.534;2023-01-08T13:38:43;6.40;73.10
21734;DHT22;11029;47.820;10.534;2023-01-08T13:41:34;6.40;73.00
21734;DHT22;11029;47.820;10.534;2023-01-08T13:44:26;6.40;71.30
21734;DHT22;11029;47.820;10.534;2023-01-08T13:46:58;6.30;70.80
21734;DHT22;11029;47.820;10.534;2023-01-08T13:49:47;6.30;71.10
21734;DHT22;11029;47.820;10.534;2023-01-08T13:52:30;6.30;70.80
21734;DHT22;11029;47.820;10.534;2023-01-08T13:54:59;6.30;70.90
21734;DHT22;11029;47.820;10.534;2023-01-08T13:57:41;6.30;70.20
21734;DHT22;11029;47.820;10.534;2023-01-08T14:00:43;6.30;69.60
21734;DHT22;11029;47.820;10.534;2023-01-08T14:03:03;6.30;67.90
21734;DHT22;11029;47.820;10.534;2023-01-08T14:05:31;6.30;67.70
21734;DHT22;11029;47.820;10.534;2023-01-08T14:08:02;6.40;67.70
21734;DHT22;11029;47.820;10.534;2023-01-08T14:10:29;6.40;68.10
21734;DHT22;11029;47.820;10.534;2023-01-08T14:13:06;6.40;68.60
21734;DHT22;11029;47.820;10.534;2023-01-08T14:15:34;6.40;69.00
21734;DHT22;11029;47.820;10.534;2023-01-08T14:18:02;6.40;69.30
21734;DHT22;11029;47.820;10.534;2023-01-08T14:20:31;6.40;69.40
21734;DHT22;11029;47.820;10.534;2023-01-08T14:22:59;6.40;69.10
21734;DHT22;11029;47.820;10.534;2023-01-08T14:25:27;6.30;68.70
21734;DHT22;11029;47.820;10.534;2023-01-08T14:27:59;6.30;68.80
21734;DHT22;11029;47.820;10.534;2023-01-08T14:30:27;6.30;68.90
21734;DHT22;11029;47.820;10.534;2023-01-08T14:32:56;6.20;69.50
21734;DHT22;11029;47.820;10.534;2023-01-08T14:35:32;6.20;69.80
21734;DHT22;11029;47.820;10.534;2023-01-08T14:38:01;6.20;70.50
21734;DHT22;11029;47.820;10.534;2023-01-08T14:40:35;6.20;70.80
21734;DHT22;11029;47.820;10.534;2023-01-08T14:43:07;6.20;70.90
21734;DHT22;11029;47.820;10.534;2023-01-08T14:45:35;6.10;73.20
21734;DHT22;11029;47.820;10.534;2023-01-08T14:48:19;6.00;73.80
21734;DHT22;11029;47.820;10.534;2023-01-08T14:53:30;6.00;73.10
21734;DHT22;11029;47.820;10.534;2023-01-08T14:55:58;6.00;73.20
21734;DHT22;11029;47.820;10.534;2023-01-08T14:58:27;6.00;73.30
21734;DHT22;11029;47.820;10.534;2023-01-08T15:01:00;6.10;73.60
21734;DHT22;11029;47.820;10.534;2023-01-08T15:03:32;6.00;74.00
21734;DHT22;11029;47.820;10.534;2023-01-08T15:06:00;6.00;74.10
21734;DHT22;11029;47.820;10.534;2023-01-08T15:08:35;6.00;74.80
21734;DHT22;11029;47.820;10.534;2023-01-08T15:11:20;6.00;75.00
21734;DHT22;11029;47.820;10.534;2023-01-08T15:13:48;5.90;75.40
21734;DHT22;11029;47.820;10.534;2023-01-08T15:19:15;5.90;75.40
21734;DHT22;11029;47.820;10.534;2023-01-08T15:21:47;5.80;75.40
21734;DHT22;11029;47.820;10.534;2023-01-08T15:24:30;5.80;75.50
21734;DHT22;11029;47.820;10.534;2023-01-08T15:26:58;5.70;75.30
21734;DHT22;11029;47.820;10.534;2023-01-08T15:29:28;5.70;75.20
21734;DHT22;11029;47.820;10.534;2023-01-08T15:34:42;5.60;75.30
21734;DHT22;11029;47.820;10.534;2023-01-08T15:37:09;5.60;75.50
21734;DHT22;11029;47.820;10.534;2023-01-08T15:39:36;5.50;75.50
21734;DHT22;11029;47.820;10.534;2023-01-08T15:42:29;5.50;75.60
21734;DHT22;11029;47.820;10.534;2023-01-08T15:45:18;5.40;75.70
21734;DHT22;11029;47.820;10.534;2023-01-08T15:47:45;5.30;76.00
21734;DHT22;11029;47.820;10.534;2023-01-08T15:50:13;5.20;75.70
21734;DHT22;11029;47.820;10.534;2023-01-08T15:52:41;5.20;75.70
21734;DHT22;11029;47.820;10.534;2023-01-08T15:55:22;5.20;75.70
21734;DHT22;11029;47.820;10.534;2023-01-08T15:57:49;5.10;75.90
21734;DHT22;11029;47.820;10.534;2023-01-08T16:00:18;5.10;75.80
21734;DHT22;11029;47.820;10.534;2023-01-08T16:02:47;5.00;75.90
21734;DHT22;11029;47.820;10.534;2023-01-08T16:05:18;5.00;75.70
21734;DHT22;11029;47.820;10.534;2023-01-08T16:07:45;4.80;76.30
21734;DHT22;11029;47.820;10.534;2023-01-08T16:10:16;4.80;76.40
21734;DHT22;11029;47.820;10.534;2023-01-08T16:12:43;4.80;76.50
21734;DHT22;11029;47.820;10.534;2023-01-08T16:15:11;4.70;76.30
21734;DHT22;11029;47.820;10.534;2023-01-08T16:17:38;4.70;76.00
21734;DHT22;11029;47.820;10.534;2023-01-08T16:20:05;4.70;75.80
21734;DHT22;11029;47.820;10.534;2023-01-08T16:22:32;4.60;76.30
21734;DHT22;11029;47.820;10.534;2023-01-08T16:24:59;4.60;76.30
21734;DHT22;11029;47.820;10.534;2023-01-08T16:27:26;4.50;76.60
21734;DHT22;11029;47.820;10.534;2023-01-08T16:29:53;4.50;76.70
21734;DHT22;11029;47.820;10.534;2023-01-08T16:32:20;4.40;77.20
21734;DHT22;11029;47.820;10.534;2023-01-08T16:34:46;4.30;77.10
21734;DHT22;11029;47.820;10.534;2023-01-08T16:37:13;4.20;77.10
21734;DHT22;11029;47.820;10.534;2023-01-08T16:39:40;4.10;77.00
21734;DHT22;11029;47.820;10.534;2023-01-08T16:42:07;4.00;77.80
21734;DHT22;11029;47.820;10.534;2023-01-08T16:44:35;3.90;78.60
21734;DHT22;11029;47.820;10.534;2023-01-08T16:47:02;3.90;78.40